DEXST EDFH-EDKF
Flight info
| Callsign | DEXST |
|---|---|
| Flight time | N/A |
| Altitude | |
| Route | |
| Aircraft | BE36 |
Departure
| Time | 2026-05-07 19:57 |
|---|---|
| Airport | Frankfurt-Hahn Airport (EDFH) |
Arrival
| Time | N/A |
|---|---|
| Airport | Bergneustadt-Auf dem Dümpel Airfield (EDKF) |
| Time | Latitude | Longitude | Altitude | Speed | Heading |
|---|---|---|---|---|---|
| 2026-05-07 19:52 | 49.94234 | 7.26371 | 1651 ft | 0 kts | 123° |
| 2026-05-07 19:53 | 49.94234 | 7.26372 | 1651 ft | 1 kts | 115° |
| 2026-05-07 19:54 | 49.94252 | 7.26359 | 1651 ft | 6 kts | 304° |
| 2026-05-07 19:54 | 49.94312 | 7.26385 | 1650 ft | 16 kts | 35° |
| 2026-05-07 19:54 | 49.94405 | 7.26477 | 1649 ft | 12 kts | 25° |
| 2026-05-07 19:54 | 49.94461 | 7.26408 | 1648 ft | 16 kts | 300° |
| 2026-05-07 19:55 | 49.94515 | 7.26274 | 1648 ft | 12 kts | 303° |
| 2026-05-07 19:55 | 49.94531 | 7.26237 | 1649 ft | 0 kts | 303° |
| 2026-05-07 19:56 | 49.94564 | 7.26155 | 1649 ft | 16 kts | 302° |
| 2026-05-07 19:56 | 49.94563 | 7.26091 | 1649 ft | 0 kts | 212° |
| 2026-05-07 19:56 | 49.94542 | 7.26069 | 1649 ft | 25 kts | 214° |
| 2026-05-07 19:56 | 49.94168 | 7.25700 | 1691 ft | 92 kts | 212° |
| 2026-05-07 19:57 | 49.93604 | 7.25136 | 2069 ft | 97 kts | 212° |
| 2026-05-07 19:57 | 49.92965 | 7.24581 | 2375 ft | 115 kts | 193° |
| 2026-05-07 19:57 | 49.92303 | 7.25082 | 2664 ft | 124 kts | 98° |
| 2026-05-07 19:57 | 49.92747 | 7.26199 | 2866 ft | 139 kts | 38° |
| 2026-05-07 19:58 | 49.93556 | 7.27080 | 2920 ft | 158 kts | 37° |
| 2026-05-07 19:58 | 49.94423 | 7.28164 | 3171 ft | 156 kts | 39° |
| 2026-05-07 19:58 | 49.95308 | 7.29240 | 3241 ft | 171 kts | 38° |
| 2026-05-07 19:58 | 49.96032 | 7.30865 | 2910 ft | 197 kts | 73° |
| 2026-05-07 19:59 | 49.96237 | 7.32989 | 2751 ft | 199 kts | 87° |
| 2026-05-07 19:59 | 49.96265 | 7.35104 | 2728 ft | 191 kts | 90° |
| 2026-05-07 19:59 | 49.96250 | 7.37108 | 2851 ft | 181 kts | 91° |
| 2026-05-07 19:59 | 49.96220 | 7.39043 | 2929 ft | 178 kts | 91° |
| 2026-05-07 20:00 | 49.96182 | 7.40960 | 2968 ft | 178 kts | 92° |
| 2026-05-07 20:00 | 49.96141 | 7.42887 | 2984 ft | 179 kts | 92° |
| 2026-05-07 20:00 | 49.96097 | 7.44821 | 2990 ft | 180 kts | 92° |
| 2026-05-07 20:00 | 49.96276 | 7.46691 | 2991 ft | 180 kts | 62° |
| 2026-05-07 20:01 | 49.97185 | 7.47943 | 3050 ft | 176 kts | 20° |
| 2026-05-07 20:01 | 49.98360 | 7.48323 | 3179 ft | 171 kts | 7° |
| 2026-05-07 20:01 | 49.99533 | 7.48532 | 3304 ft | 169 kts | 5° |
| 2026-05-07 20:01 | 50.00697 | 7.48717 | 3429 ft | 168 kts | 5° |
| 2026-05-07 20:02 | 50.01855 | 7.48897 | 3555 ft | 167 kts | 5° |
| 2026-05-07 20:02 | 50.03013 | 7.49073 | 3683 ft | 167 kts | 5° |
| 2026-05-07 20:02 | 50.04168 | 7.49251 | 3809 ft | 167 kts | 5° |
| 2026-05-07 20:02 | 50.05323 | 7.49431 | 3931 ft | 167 kts | 6° |
| 2026-05-07 20:03 | 50.06406 | 7.50069 | 3980 ft | 172 kts | 33° |
| 2026-05-07 20:03 | 50.07342 | 7.51223 | 3992 ft | 176 kts | 40° |
| 2026-05-07 20:03 | 50.08283 | 7.52477 | 4001 ft | 179 kts | 40° |
| 2026-05-07 20:03 | 50.09244 | 7.53728 | 3999 ft | 181 kts | 39° |
| 2026-05-07 20:04 | 50.10222 | 7.54967 | 4002 ft | 182 kts | 38° |
| 2026-05-07 20:04 | 50.11212 | 7.56200 | 4002 ft | 182 kts | 38° |
| 2026-05-07 20:04 | 50.12207 | 7.57430 | 3999 ft | 183 kts | 38° |
| 2026-05-07 20:04 | 50.13207 | 7.58658 | 4001 ft | 183 kts | 38° |
| 2026-05-07 20:05 | 50.14206 | 7.59885 | 4001 ft | 183 kts | 38° |
| 2026-05-07 20:05 | 50.15207 | 7.61115 | 4001 ft | 183 kts | 38° |
| 2026-05-07 20:05 | 50.16207 | 7.62346 | 3998 ft | 183 kts | 38° |
| 2026-05-07 20:05 | 50.17207 | 7.63574 | 4000 ft | 183 kts | 38° |
| 2026-05-07 20:06 | 50.18206 | 7.64806 | 3999 ft | 183 kts | 38° |
| 2026-05-07 20:06 | 50.19193 | 7.66024 | 4003 ft | 183 kts | 38° |
| 2026-05-07 20:06 | 50.20193 | 7.67262 | 4002 ft | 183 kts | 38° |
| 2026-05-07 20:06 | 50.21193 | 7.68499 | 4001 ft | 183 kts | 38° |
| 2026-05-07 20:07 | 50.22194 | 7.69735 | 4003 ft | 184 kts | 38° |
| 2026-05-07 20:07 | 50.23195 | 7.70971 | 4003 ft | 184 kts | 38° |
| 2026-05-07 20:07 | 50.24198 | 7.72209 | 3992 ft | 184 kts | 38° |
| 2026-05-07 20:07 | 50.25237 | 7.73357 | 3996 ft | 183 kts | 25° |
| 2026-05-07 20:08 | 50.26467 | 7.73757 | 3998 ft | 182 kts | 356° |
| 2026-05-07 20:08 | 50.27724 | 7.73596 | 4000 ft | 181 kts | 357° |
| 2026-05-07 20:08 | 50.28988 | 7.73575 | 4003 ft | 182 kts | 359° |
| 2026-05-07 20:08 | 50.30237 | 7.73569 | 4002 ft | 182 kts | 359° |
| 2026-05-07 20:09 | 50.31504 | 7.73545 | 4003 ft | 182 kts | 358° |
| 2026-05-07 20:09 | 50.32772 | 7.73509 | 4000 ft | 182 kts | 358° |
| 2026-05-07 20:09 | 50.34043 | 7.73465 | 4004 ft | 183 kts | 358° |
| 2026-05-07 20:10 | 50.36584 | 7.73371 | 4004 ft | 183 kts | 358° |
| 2026-05-07 20:10 | 50.37858 | 7.73330 | 4001 ft | 183 kts | 358° |
| 2026-05-07 20:10 | 50.39129 | 7.73284 | 3996 ft | 183 kts | 358° |
| 2026-05-07 20:10 | 50.40398 | 7.73234 | 4000 ft | 183 kts | 358° |
| 2026-05-07 20:11 | 50.41671 | 7.73182 | 3998 ft | 184 kts | 358° |
| 2026-05-07 20:11 | 50.42955 | 7.73129 | 4002 ft | 184 kts | 358° |
| 2026-05-07 20:11 | 50.44217 | 7.73067 | 4002 ft | 184 kts | 358° |
| 2026-05-07 20:11 | 50.45496 | 7.73014 | 3996 ft | 184 kts | 358° |
| 2026-05-07 20:12 | 50.46776 | 7.72967 | 3999 ft | 184 kts | 358° |
| 2026-05-07 20:12 | 50.48054 | 7.72925 | 3998 ft | 184 kts | 358° |
| 2026-05-07 20:12 | 50.49332 | 7.72878 | 3995 ft | 184 kts | 358° |
| 2026-05-07 20:12 | 50.50608 | 7.72826 | 3999 ft | 183 kts | 358° |
| 2026-05-07 20:13 | 50.51884 | 7.72773 | 3994 ft | 184 kts | 358° |
| 2026-05-07 20:13 | 50.53160 | 7.72720 | 4001 ft | 184 kts | 358° |
| 2026-05-07 20:13 | 50.54404 | 7.72669 | 3994 ft | 184 kts | 358° |
| 2026-05-07 20:13 | 50.55680 | 7.72617 | 4001 ft | 184 kts | 358° |
| 2026-05-07 20:14 | 50.56959 | 7.72564 | 3998 ft | 184 kts | 358° |
| 2026-05-07 20:14 | 50.58236 | 7.72511 | 4001 ft | 184 kts | 358° |
| 2026-05-07 20:14 | 50.59514 | 7.72456 | 4001 ft | 184 kts | 358° |
| 2026-05-07 20:14 | 50.60791 | 7.72403 | 3998 ft | 184 kts | 358° |
| 2026-05-07 20:15 | 50.62067 | 7.72354 | 4000 ft | 184 kts | 358° |
| 2026-05-07 20:15 | 50.63345 | 7.72306 | 3999 ft | 183 kts | 358° |
| 2026-05-07 20:15 | 50.64601 | 7.72257 | 3995 ft | 183 kts | 358° |
| 2026-05-07 20:15 | 50.65879 | 7.72208 | 4000 ft | 183 kts | 358° |
| 2026-05-07 20:16 | 50.67154 | 7.72158 | 4001 ft | 184 kts | 358° |
| 2026-05-07 20:16 | 50.68426 | 7.72108 | 4002 ft | 184 kts | 358° |
| 2026-05-07 20:16 | 50.69698 | 7.72057 | 4002 ft | 184 kts | 358° |
| 2026-05-07 20:16 | 50.70977 | 7.72006 | 4002 ft | 184 kts | 358° |
| 2026-05-07 20:17 | 50.72254 | 7.71956 | 4000 ft | 184 kts | 358° |
| 2026-05-07 20:17 | 50.73532 | 7.71905 | 4000 ft | 184 kts | 358° |
| 2026-05-07 20:17 | 50.74791 | 7.71856 | 4000 ft | 184 kts | 358° |
| 2026-05-07 20:17 | 50.76068 | 7.71805 | 3997 ft | 183 kts | 358° |
| 2026-05-07 20:18 | 50.77343 | 7.71747 | 3996 ft | 183 kts | 358° |
| 2026-05-07 20:18 | 50.78619 | 7.71686 | 4002 ft | 183 kts | 358° |
| 2026-05-07 20:18 | 50.79896 | 7.71632 | 4001 ft | 184 kts | 358° |
| 2026-05-07 20:18 | 50.81172 | 7.71583 | 3994 ft | 183 kts | 358° |
| 2026-05-07 20:19 | 50.82447 | 7.71536 | 4000 ft | 183 kts | 358° |
| 2026-05-07 20:19 | 50.83723 | 7.71490 | 4000 ft | 183 kts | 358° |
| 2026-05-07 20:19 | 50.85001 | 7.71444 | 4004 ft | 184 kts | 358° |
| 2026-05-07 20:19 | 50.86280 | 7.71395 | 4005 ft | 184 kts | 358° |
| 2026-05-07 20:20 | 50.87542 | 7.71345 | 4004 ft | 184 kts | 358° |
| 2026-05-07 20:20 | 50.88242 | 7.71318 | 3997 ft | 184 kts | 358° |
| 2026-05-07 20:20 | 50.89522 | 7.71268 | 3994 ft | 184 kts | 358° |
| 2026-05-07 20:20 | 50.90743 | 7.71220 | 4000 ft | 184 kts | 358° |
| 2026-05-07 20:21 | 50.92020 | 7.71170 | 4000 ft | 184 kts | 358° |
| 2026-05-07 20:21 | 50.93298 | 7.71119 | 4003 ft | 184 kts | 358° |
| 2026-05-07 20:21 | 50.94577 | 7.71067 | 3997 ft | 184 kts | 358° |
| 2026-05-07 20:21 | 50.95739 | 7.71021 | 4001 ft | 184 kts | 358° |
| 2026-05-07 20:22 | 50.97000 | 7.70970 | 4001 ft | 184 kts | 358° |
| 2026-05-07 20:22 | 50.98278 | 7.70920 | 4001 ft | 184 kts | 358° |
| 2026-05-07 20:22 | 50.99555 | 7.70867 | 3995 ft | 184 kts | 358° |
| 2026-05-07 20:22 | 51.00832 | 7.70817 | 4002 ft | 184 kts | 358° |
| 2026-05-07 20:23 | 51.02109 | 7.70768 | 4000 ft | 184 kts | 358° |
| 2026-05-07 20:23 | 51.03385 | 7.70664 | 4000 ft | 183 kts | 349° |
| 2026-05-07 20:23 | 51.04557 | 7.69907 | 4001 ft | 183 kts | 325° |
| 2026-05-07 20:23 | 51.05439 | 7.68481 | 4001 ft | 182 kts | 302° |
| 2026-05-07 20:24 | 51.05783 | 7.67272 | 4001 ft | 182 kts | 286° |
| 2026-05-07 20:24 | 51.06086 | 7.65326 | 4002 ft | 181 kts | 285° |
| 2026-05-07 20:24 | 51.06559 | 7.62784 | 4003 ft | 181 kts | 287° |
| 2026-05-07 20:24 | 51.06933 | 7.60865 | 4002 ft | 182 kts | 287° |
| 2026-05-07 20:25 | 51.07304 | 7.58949 | 4003 ft | 182 kts | 287° |
| 2026-05-07 20:25 | 51.07673 | 7.57025 | 3996 ft | 182 kts | 287° |
| 2026-05-07 20:25 | 51.08035 | 7.55105 | 3999 ft | 182 kts | 286° |
| 2026-05-07 20:25 | 51.08401 | 7.53132 | 3831 ft | 189 kts | 286° |
| 2026-05-07 20:26 | 51.08648 | 7.51799 | 3717 ft | 192 kts | 286° |
| 2026-05-07 20:26 | 51.09029 | 7.49746 | 3544 ft | 195 kts | 286° |
| 2026-05-07 20:26 | 51.09538 | 7.47004 | 3313 ft | 196 kts | 286° |
| 2026-05-07 20:26 | 51.09923 | 7.44922 | 3100 ft | 198 kts | 286° |
| 2026-05-07 20:27 | 51.10311 | 7.42814 | 2875 ft | 199 kts | 286° |
| 2026-05-07 20:27 | 51.10699 | 7.40703 | 2650 ft | 199 kts | 286° |
| 2026-05-07 20:27 | 51.10962 | 7.39271 | 2497 ft | 199 kts | 286° |
| 2026-05-07 20:27 | 51.11344 | 7.37190 | 2344 ft | 196 kts | 286° |
| 2026-05-07 20:28 | 51.11721 | 7.35155 | 2322 ft | 189 kts | 286° |
| 2026-05-07 20:28 | 51.12088 | 7.33173 | 2311 ft | 185 kts | 286° |
| 2026-05-07 20:28 | 51.12442 | 7.31226 | 2305 ft | 182 kts | 285° |
| 2026-05-07 20:28 | 51.12790 | 7.29297 | 2300 ft | 181 kts | 286° |
| 2026-05-07 20:29 | 51.13141 | 7.27390 | 2295 ft | 180 kts | 286° |
| 2026-05-07 20:29 | 51.13490 | 7.25491 | 2300 ft | 179 kts | 286° |
| 2026-05-07 20:29 | 51.13838 | 7.23595 | 2301 ft | 179 kts | 286° |
| 2026-05-07 20:29 | 51.14185 | 7.21695 | 2299 ft | 179 kts | 286° |
| 2026-05-07 20:30 | 51.14530 | 7.19799 | 2305 ft | 179 kts | 286° |
| 2026-05-07 20:30 | 51.14872 | 7.17919 | 2306 ft | 179 kts | 286° |
| 2026-05-07 20:30 | 51.15218 | 7.16017 | 2306 ft | 179 kts | 286° |
| 2026-05-07 20:30 | 51.15564 | 7.14103 | 2304 ft | 181 kts | 286° |
| 2026-05-07 20:31 | 51.15915 | 7.12168 | 2305 ft | 183 kts | 286° |
| 2026-05-07 20:31 | 51.16268 | 7.10221 | 2305 ft | 183 kts | 286° |
| 2026-05-07 20:31 | 51.16619 | 7.08267 | 2304 ft | 184 kts | 285° |
| 2026-05-07 20:31 | 51.16973 | 7.06308 | 2305 ft | 184 kts | 286° |
| 2026-05-07 20:32 | 51.17327 | 7.04351 | 2299 ft | 184 kts | 286° |
| 2026-05-07 20:32 | 51.17682 | 7.02393 | 2300 ft | 184 kts | 286° |
| 2026-05-07 20:32 | 51.18036 | 7.00433 | 2297 ft | 184 kts | 286° |
| 2026-05-07 20:32 | 51.18389 | 6.98473 | 2301 ft | 184 kts | 285° |
| 2026-05-07 20:33 | 51.18736 | 6.96539 | 2297 ft | 184 kts | 285° |
| 2026-05-07 20:33 | 51.19115 | 6.94595 | 2296 ft | 184 kts | 293° |
| 2026-05-07 20:33 | 51.19907 | 6.93011 | 2297 ft | 184 kts | 314° |
| 2026-05-07 20:33 | 51.20661 | 6.91381 | 2297 ft | 184 kts | 298° |
| 2026-05-07 20:34 | 51.21214 | 6.89541 | 2301 ft | 184 kts | 294° |
| 2026-05-07 20:34 | 51.21712 | 6.87665 | 2304 ft | 184 kts | 292° |
| 2026-05-07 20:34 | 51.22190 | 6.85784 | 2301 ft | 184 kts | 291° |
| 2026-05-07 20:34 | 51.22662 | 6.83888 | 2303 ft | 184 kts | 291° |
| 2026-05-07 20:35 | 51.23131 | 6.81989 | 2298 ft | 184 kts | 291° |
| 2026-05-07 20:35 | 51.23598 | 6.80086 | 2303 ft | 184 kts | 291° |
| 2026-05-07 20:35 | 51.23991 | 6.78271 | 2319 ft | 163 kts | 286° |
| 2026-05-07 20:35 | 51.24247 | 6.76556 | 2172 ft | 156 kts | 281° |
| 2026-05-07 20:36 | 51.24540 | 6.74958 | 2022 ft | 149 kts | 295° |
| 2026-05-07 20:36 | 51.25014 | 6.73517 | 1715 ft | 143 kts | 297° |
| 2026-05-07 20:36 | 51.25673 | 6.72454 | 1444 ft | 132 kts | 345° |
| 2026-05-07 20:36 | 51.26523 | 6.72631 | 1066 ft | 116 kts | 20° |
| 2026-05-07 20:37 | 51.27086 | 6.73382 | 646 ft | 98 kts | 50° |
| 2026-05-07 20:37 | 51.27493 | 6.74216 | 388 ft | 93 kts | 52° |
| 2026-05-07 20:37 | 51.27871 | 6.75008 | 243 ft | 89 kts | 52° |
| 2026-05-07 20:37 | 51.28244 | 6.75789 | 155 ft | 87 kts | 53° |
| 2026-05-07 20:38 | 51.28599 | 6.76532 | 140 ft | 84 kts | 52° |
| 2026-05-07 20:38 | 51.28961 | 6.77290 | 146 ft | 89 kts | 52° |
| 2026-05-07 20:38 | 51.29392 | 6.78163 | 428 ft | 105 kts | 51° |
| 2026-05-07 20:38 | 51.29814 | 6.79092 | 829 ft | 107 kts | 63° |
| 2026-05-07 20:39 | 51.29753 | 6.80251 | 853 ft | 113 kts | 131° |
| 2026-05-07 20:39 | 51.29028 | 6.80904 | 806 ft | 125 kts | 152° |